Terminal Aerodrome Forecast
Issued by NWS

Home | Current Version | Previous Version | Text Only | Print | Product List | Glossary On
Versions: 1 2 3 4 5 6 7 8 9 10 11 12 13 14
000
FTUS44 KEPZ 301601 AAC
TAFLRU
TAF AMD
KLRU 301601Z 3016/0112 15007KT P6SM SCT012 SCT030 BKN120
      TEMPO 3016/3017 BKN008 BKN030 BKN120
     FM301900 14008KT P6SM VCTS SCT070CB BKN150
     FM010300 17007KT P6SM SCT070 BKN250=

USA.gov is the U.S. government's official web portal to all federal, state and local government web resources and services.